createdAt,value
2018-08-20T00:01:39.985Z,6.20
2018-08-20T00:04:10.348Z,6.33
2018-08-20T00:06:51.065Z,6.00
2018-08-20T00:09:21.368Z,6.00
2018-08-20T00:11:50.282Z,6.25
2018-08-20T00:14:22.020Z,6.45
2018-08-20T00:16:50.658Z,6.00
2018-08-20T00:19:20.051Z,6.17
2018-08-20T00:21:48.825Z,6.50
2018-08-20T00:24:17.432Z,6.08
2018-08-20T00:26:46.255Z,6.20
2018-08-20T00:29:15.060Z,7.10
2018-08-20T00:31:43.781Z,7.57
2018-08-20T00:34:12.470Z,7.83
2018-08-20T00:36:41.196Z,7.20
2018-08-20T00:39:11.291Z,7.10
2018-08-20T00:41:41.353Z,6.53
2018-08-20T00:44:12.608Z,6.90
2018-08-20T00:46:42.282Z,6.62
2018-08-20T00:49:11.121Z,6.50
2018-08-20T00:51:40.460Z,6.70
2018-08-20T00:54:09.227Z,6.92
2018-08-20T00:56:37.925Z,6.80
2018-08-20T00:59:06.559Z,6.47
2018-08-20T01:01:35.637Z,6.40
2018-08-20T01:04:04.490Z,6.75
2018-08-20T01:06:33.308Z,6.65
2018-08-20T01:09:02.200Z,6.70
2018-08-20T01:11:30.890Z,6.78
2018-08-20T01:13:59.593Z,6.57
2018-08-20T01:16:28.451Z,6.50
2018-08-20T01:18:57.222Z,6.62
2018-08-20T01:21:26.362Z,6.62
2018-08-20T01:23:54.981Z,6.70
2018-08-20T01:26:23.664Z,6.83
2018-08-20T01:28:52.292Z,6.35
2018-08-20T01:31:22.402Z,6.90
2018-08-20T01:33:51.159Z,7.35
2018-08-20T01:36:20.105Z,6.95
2018-08-20T01:38:48.819Z,7.25
2018-08-20T01:41:17.527Z,7.65
2018-08-20T01:43:46.305Z,7.67
2018-08-20T01:46:15.049Z,7.25
2018-08-20T01:48:43.817Z,7.63
2018-08-20T01:51:12.540Z,7.45
2018-08-20T01:53:42.790Z,7.35
2018-08-20T01:56:11.651Z,7.12
2018-08-20T01:58:40.737Z,7.28
2018-08-20T02:01:09.863Z,7.50
2018-08-20T02:03:38.991Z,7.43
2018-08-20T02:06:07.779Z,7.07
2018-08-20T02:08:36.581Z,7.45
2018-08-20T02:11:05.703Z,7.12
2018-08-20T02:13:34.464Z,7.00
2018-08-20T02:16:03.936Z,7.30
2018-08-20T02:18:32.810Z,7.25
2018-08-20T02:21:02.866Z,7.50
2018-08-20T02:23:31.706Z,7.37
2018-08-20T02:26:00.558Z,7.40
2018-08-20T02:28:29.359Z,7.85
2018-08-20T02:30:58.316Z,7.22
2018-08-20T02:33:27.382Z,7.72
2018-08-20T02:35:56.176Z,8.03
2018-08-20T02:38:25.413Z,7.65
2018-08-20T02:40:54.143Z,7.45
2018-08-20T02:43:24.374Z,7.83
2018-08-20T02:45:53.283Z,7.75
2018-08-20T02:48:21.930Z,7.70
2018-08-20T02:50:50.663Z,8.20
2018-08-20T02:53:19.371Z,7.30
2018-08-20T02:55:48.144Z,7.60
2018-08-20T02:58:16.865Z,7.83
2018-08-20T03:00:45.690Z,7.95
2018-08-20T03:03:14.387Z,7.97
2018-08-20T03:05:44.443Z,8.40
2018-08-20T03:08:14.138Z,8.58
2018-08-20T03:10:43.228Z,8.68
2018-08-20T03:13:11.920Z,8.90
2018-08-20T03:15:42.391Z,8.85
2018-08-20T03:18:11.233Z,9.20
2018-08-20T03:20:39.900Z,8.73
2018-08-20T03:23:08.698Z,8.75
2018-08-20T03:25:39.332Z,8.03
2018-08-20T03:28:08.254Z,8.40
2018-08-20T03:30:37.023Z,8.40
2018-08-20T03:33:05.896Z,7.90
2018-08-20T03:35:36.512Z,8.58
2018-08-20T03:38:05.350Z,8.38
2018-08-20T03:40:34.246Z,8.73
2018-08-20T03:43:04.627Z,8.55
2018-08-20T03:45:33.767Z,8.90
2018-08-20T03:48:02.557Z,8.10
2018-08-20T03:50:31.307Z,8.78
2018-08-20T03:53:01.639Z,8.78
2018-08-20T03:55:30.363Z,8.45
2018-08-20T03:57:58.961Z,8.23
2018-08-20T04:00:27.893Z,8.93
2018-08-20T04:02:56.558Z,9.00
2018-08-20T04:05:26.790Z,8.50
2018-08-20T04:07:55.510Z,8.28
2018-08-20T04:10:24.103Z,9.23
2018-08-20T04:12:55.330Z,8.73
2018-08-20T04:15:24.025Z,8.75
2018-08-20T04:17:53.238Z,8.20
2018-08-20T04:20:25.626Z,8.55
2018-08-20T04:22:54.273Z,8.80
2018-08-20T04:25:24.713Z,9.00
2018-08-20T04:27:53.402Z,9.08
2018-08-20T04:30:24.063Z,8.73
2018-08-20T04:32:54.942Z,9.75
2018-08-20T04:35:23.563Z,8.85
2018-08-20T04:37:55.408Z,9.00
2018-08-20T04:40:24.236Z,8.93
2018-08-20T04:42:52.895Z,9.65
2018-08-20T04:45:21.520Z,9.33
2018-08-20T04:47:51.949Z,9.63
2018-08-20T04:50:23.370Z,10.00
2018-08-20T04:52:52.063Z,10.15
2018-08-20T04:55:20.697Z,9.30
2018-08-20T04:57:51.033Z,9.90
2018-08-20T05:00:19.661Z,10.45
2018-08-20T05:02:50.837Z,10.45
2018-08-20T05:05:20.033Z,10.35
2018-08-20T05:07:48.968Z,10.50
2018-08-20T05:10:17.827Z,10.30
2018-08-20T05:12:46.534Z,10.80
2018-08-20T05:15:16.520Z,10.95
2018-08-20T05:17:45.244Z,11.80
2018-08-20T05:20:13.843Z,11.63
2018-08-20T05:22:42.530Z,12.05
2018-08-20T05:25:11.435Z,11.28
2018-08-20T05:27:40.034Z,12.03
2018-08-20T05:30:09.023Z,11.97
2018-08-20T05:32:39.661Z,12.78
2018-08-20T05:35:08.298Z,13.15
2018-08-20T05:37:38.328Z,13.53
2018-08-20T05:40:08.690Z,13.43
2018-08-20T05:42:37.398Z,11.95
2018-08-20T05:45:08.168Z,13.22
2018-08-20T05:47:36.960Z,12.25
2018-08-20T05:50:05.804Z,12.40
2018-08-20T05:52:34.526Z,13.05
2018-08-20T05:56:32.391Z,13.03
2018-08-20T05:59:01.129Z,14.20
2018-08-20T06:01:31.179Z,15.18
2018-08-20T06:04:00.126Z,16.05
2018-08-20T06:06:28.922Z,19.87
2018-08-20T06:08:59.518Z,27.87
2018-08-20T06:11:28.830Z,27.62
2018-08-20T06:13:57.774Z,24.63
2018-08-20T06:16:26.494Z,22.62
2018-08-20T06:19:01.090Z,24.57
2018-08-20T06:21:30.631Z,24.07
2018-08-20T06:24:02.135Z,23.50
2018-08-20T06:26:30.795Z,19.60
2018-08-20T06:29:02.165Z,15.83
2018-08-20T06:31:30.921Z,13.68
2018-08-20T06:34:06.932Z,12.85
2018-08-20T06:36:36.012Z,12.90
2018-08-20T06:39:07.080Z,11.13
2018-08-20T06:41:35.769Z,11.10
2018-08-20T06:44:04.606Z,10.48
2018-08-20T06:46:34.122Z,9.90
2018-08-20T06:49:02.787Z,9.33
2018-08-20T06:51:31.539Z,8.88
2018-08-20T06:54:00.161Z,8.98
2018-08-20T06:56:29.179Z,9.00
2018-08-20T06:58:58.365Z,8.17
2018-08-20T07:01:27.118Z,8.63
2018-08-20T07:03:59.934Z,8.43
2018-08-20T07:06:28.712Z,8.30
2018-08-20T07:08:58.506Z,8.47
2018-08-20T07:11:30.451Z,8.30
2018-08-20T07:13:59.777Z,8.23
2018-08-20T07:16:33.001Z,7.87
2018-08-20T07:19:06.843Z,8.10
2018-08-20T07:21:35.897Z,8.35
2018-08-20T07:24:04.621Z,8.55
2018-08-20T07:26:33.986Z,8.27
2018-08-20T07:29:14.901Z,8.43
2018-08-20T07:31:43.948Z,8.33
2018-08-20T07:34:12.749Z,8.65
2018-08-20T07:36:43.407Z,8.13
2018-08-20T07:39:15.699Z,8.35
2018-08-20T07:41:46.272Z,8.80
2018-08-20T07:44:14.957Z,8.53
2018-08-20T07:46:44.092Z,8.50
2018-08-20T07:50:42.155Z,8.20
2018-08-20T07:53:12.070Z,8.30
2018-08-20T07:55:43.928Z,8.20
2018-08-20T07:58:12.672Z,8.77
2018-08-20T08:00:47.054Z,9.23
2018-08-20T08:03:20.244Z,9.30
2018-08-20T08:05:49.080Z,9.25
2018-08-20T08:08:23.100Z,8.95
2018-08-20T08:10:51.984Z,8.75
2018-08-20T08:13:20.633Z,8.58
2018-08-20T08:15:49.357Z,8.77
2018-08-20T08:18:22.626Z,8.73
2018-08-20T08:20:53.833Z,8.75
2018-08-20T08:23:23.762Z,9.03
2018-08-20T08:27:21.979Z,8.60
2018-08-20T08:29:50.837Z,8.48
2018-08-20T08:32:19.758Z,8.73
2018-08-20T09:20:33.008Z,7.53
2018-08-20T09:23:07.634Z,8.38
2018-08-20T09:25:36.441Z,7.80
2018-08-20T09:28:07.525Z,7.90
2018-08-20T09:30:36.404Z,8.08
2018-08-20T09:33:08.105Z,8.00
2018-08-20T09:35:36.791Z,7.78
2018-08-20T09:38:05.489Z,7.67
2018-08-20T09:40:34.244Z,8.08
2018-08-20T09:43:03.064Z,7.50
2018-08-20T09:45:31.888Z,7.80
2018-08-20T09:48:00.701Z,7.62
2018-08-20T09:50:29.442Z,7.70
2018-08-20T09:53:03.646Z,7.67
2018-08-20T09:55:33.006Z,7.80
2018-08-20T10:04:17.274Z,7.45
2018-08-20T10:06:46.235Z,8.07
2018-08-20T10:09:15.012Z,8.45
2018-08-20T10:11:43.753Z,7.62
2018-08-20T10:14:12.549Z,7.37
2018-08-20T10:16:41.294Z,7.20
2018-08-20T10:19:10.028Z,6.90
2018-08-20T10:21:38.795Z,7.00
2018-08-20T10:24:09.273Z,6.87
2018-08-20T10:26:38.043Z,7.47
2018-08-20T10:29:06.840Z,6.30
2018-08-20T10:31:35.785Z,6.07
2018-08-20T10:34:04.521Z,6.42
2018-08-20T10:36:33.322Z,5.97
2018-08-20T10:39:02.326Z,5.80
2018-08-20T10:41:31.172Z,6.33
2018-08-20T10:44:00.024Z,5.83
2018-08-20T10:46:28.780Z,5.87
2018-08-20T10:48:58.326Z,6.03
2018-08-20T10:51:27.127Z,5.47
2018-08-20T10:54:02.836Z,5.20
2018-08-20T10:56:32.021Z,5.08
2018-08-20T10:59:00.730Z,5.10
2018-08-20T11:01:29.487Z,5.00
2018-08-20T11:03:59.331Z,5.03
2018-08-20T11:06:28.992Z,5.00
2018-08-20T11:08:58.495Z,5.03
2018-08-20T11:11:27.157Z,5.33
2018-08-20T11:13:55.944Z,5.12
2018-08-20T11:16:24.948Z,5.45
2018-08-20T11:18:53.883Z,5.00
2018-08-20T11:21:22.603Z,4.90
2018-08-20T11:23:51.352Z,5.00
2018-08-20T11:26:20.221Z,4.80
2018-08-20T11:28:49.587Z,4.90
2018-08-20T11:31:18.426Z,4.50
2018-08-20T11:33:47.161Z,4.77
2018-08-20T11:36:15.916Z,4.53
2018-08-20T11:38:44.652Z,4.78
2018-08-20T11:41:13.374Z,4.45
2018-08-20T11:43:42.116Z,4.70
2018-08-20T11:46:10.894Z,4.17
2018-08-20T11:48:39.591Z,4.42
2018-08-20T11:51:08.752Z,4.70
2018-08-20T11:53:37.476Z,4.75
2018-08-20T11:56:06.382Z,4.60
2018-08-20T11:58:42.387Z,4.43
2018-08-20T12:01:16.355Z,4.50
2018-08-20T12:03:50.199Z,4.85
2018-08-20T12:06:18.967Z,4.40
2018-08-20T12:08:47.635Z,4.35
2018-08-20T12:11:16.557Z,4.50
2018-08-20T12:13:45.267Z,4.50
2018-08-20T12:16:14.057Z,5.15
2018-08-20T12:18:44.271Z,4.55
2018-08-20T12:21:21.119Z,4.40
2018-08-20T12:24:03.365Z,4.70
2018-08-20T12:33:18.275Z,4.17
2018-08-20T12:35:46.993Z,4.42
2018-08-20T12:38:15.653Z,4.30
2018-08-20T12:40:46.604Z,4.70
2018-08-20T12:43:15.257Z,4.58
2018-08-20T12:45:53.587Z,4.50
2018-08-20T12:48:30.208Z,5.60
2018-08-20T12:50:59.453Z,5.33
2018-08-20T12:53:28.719Z,5.20
2018-08-20T12:55:57.423Z,4.20
2018-08-20T12:58:26.245Z,4.40
2018-08-20T13:00:55.189Z,4.05
2018-08-20T13:03:23.911Z,4.45
2018-08-20T13:05:54.518Z,4.12
2018-08-20T13:08:34.392Z,4.37
2018-08-20T13:11:17.807Z,4.37
2018-08-20T13:13:47.084Z,4.10
2018-08-20T13:16:15.997Z,3.90
2018-08-20T13:18:44.615Z,4.03
2018-08-20T13:21:13.298Z,4.53
2018-08-20T13:23:42.042Z,3.95
2018-08-20T13:26:11.360Z,4.08
2018-08-20T13:28:40.054Z,3.97
2018-08-20T13:31:08.894Z,4.50
2018-08-20T13:33:37.726Z,4.10
2018-08-20T13:36:06.600Z,4.50
2018-08-20T13:38:35.313Z,4.40
2018-08-20T13:41:04.086Z,4.22
2018-08-20T13:43:33.461Z,4.47
2018-08-20T13:46:02.295Z,4.55
2018-08-20T13:48:31.286Z,4.50
2018-08-20T13:51:00.079Z,4.92
2018-08-20T13:53:28.719Z,4.40
2018-08-20T13:55:57.793Z,4.20
2018-08-20T13:58:26.689Z,4.57
2018-08-20T14:00:55.543Z,4.28
2018-08-20T14:03:24.318Z,4.33
2018-08-20T14:05:53.160Z,4.00
2018-08-20T14:08:21.928Z,3.72
2018-08-20T14:10:50.773Z,3.80
2018-08-20T14:13:19.426Z,4.00
2018-08-20T14:15:49.032Z,3.60
2018-08-20T14:18:19.523Z,3.77
2018-08-20T14:20:57.823Z,3.62
2018-08-20T14:23:26.655Z,3.60
2018-08-20T14:25:55.383Z,3.43
2018-08-20T14:28:24.088Z,3.40
2018-08-20T14:30:52.929Z,3.42
2018-08-20T14:33:21.579Z,3.15
2018-08-20T14:35:50.342Z,3.37
2018-08-20T14:38:19.078Z,3.42
2018-08-20T14:40:47.798Z,3.50
2018-08-20T14:43:16.596Z,3.30
2018-08-20T14:45:51.498Z,3.62
2018-08-20T14:48:21.859Z,3.83
2018-08-20T14:50:50.613Z,3.70
2018-08-20T14:53:19.413Z,3.75
2018-08-20T14:55:52.431Z,3.70
2018-08-20T14:58:21.246Z,3.80
2018-08-20T15:00:50.226Z,3.52
2018-08-20T15:03:19.483Z,3.85
2018-08-20T15:05:48.411Z,3.90
2018-08-20T15:08:17.872Z,3.62
2018-08-20T15:10:46.687Z,3.90
2018-08-20T15:13:15.420Z,4.37
2018-08-20T15:15:44.598Z,4.28
2018-08-20T15:18:13.142Z,3.83
2018-08-20T15:20:43.904Z,3.90
2018-08-20T15:23:12.556Z,3.80
2018-08-20T15:25:41.315Z,4.00
2018-08-20T15:28:10.126Z,4.00
2018-08-20T15:30:39.011Z,3.95
2018-08-20T15:33:07.717Z,3.90
2018-08-20T15:35:36.498Z,3.80
2018-08-20T15:38:05.242Z,3.90
2018-08-20T15:40:34.088Z,3.75
2018-08-20T15:43:02.762Z,4.08
2018-08-20T15:45:31.933Z,4.00
2018-08-20T15:48:00.677Z,3.95
2018-08-20T15:50:29.427Z,4.37
2018-08-20T15:52:58.258Z,4.10
2018-08-20T15:55:26.909Z,5.75
2018-08-20T15:57:55.564Z,4.70
2018-08-20T16:00:26.165Z,3.80
2018-08-20T16:02:56.393Z,4.60
2018-08-20T16:05:25.222Z,3.83
2018-08-20T16:07:53.957Z,4.30
2018-08-20T16:10:23.021Z,4.08
2018-08-20T16:12:51.981Z,4.08
2018-08-20T16:15:20.677Z,3.80
2018-08-20T16:17:49.544Z,3.98
2018-08-20T16:20:18.791Z,3.80
2018-08-20T16:22:47.488Z,4.20
2018-08-20T16:25:16.345Z,6.83
2018-08-20T16:27:45.063Z,4.47
2018-08-20T16:30:14.580Z,4.22
2018-08-20T16:32:45.189Z,4.80
2018-08-20T16:35:13.978Z,4.20
2018-08-20T16:37:45.746Z,4.37
2018-08-20T16:40:14.550Z,4.40
2018-08-20T16:42:43.230Z,4.37
2018-08-20T16:45:11.935Z,10.32
2018-08-20T16:47:40.700Z,4.30
2018-08-20T16:50:11.218Z,5.20
2018-08-20T16:52:39.970Z,4.30
2018-08-20T16:55:09.611Z,4.65
2018-08-20T16:57:38.511Z,5.03
2018-08-20T17:00:09.213Z,4.10
2018-08-20T17:02:42.656Z,4.17
2018-08-20T17:05:13.073Z,4.47
2018-08-20T17:07:41.821Z,4.58
2018-08-20T17:10:15.250Z,4.87
2018-08-20T17:12:47.855Z,4.60
2018-08-20T17:15:19.752Z,5.20
2018-08-20T17:17:48.420Z,4.58
2018-08-20T17:20:17.319Z,6.80
2018-08-20T17:22:46.008Z,5.35
2018-08-20T17:25:14.804Z,5.63
2018-08-20T17:27:48.670Z,4.53
2018-08-20T17:30:17.446Z,4.80
2018-08-20T17:32:46.311Z,4.47
2018-08-20T17:35:15.072Z,4.87
2018-08-20T17:37:43.796Z,4.60
2018-08-20T17:40:12.492Z,4.90
2018-08-20T17:42:41.184Z,4.47
2018-08-20T17:45:10.176Z,4.40
2018-08-20T17:47:39.517Z,4.67
2018-08-20T17:50:20.576Z,4.90
2018-08-20T17:52:49.376Z,4.60
2018-08-20T17:55:19.321Z,4.90
2018-08-20T17:57:48.141Z,5.00
2018-08-20T18:00:24.148Z,5.33
2018-08-20T18:02:52.952Z,4.90
2018-08-20T18:05:23.120Z,5.60
2018-08-20T18:07:53.179Z,5.60
2018-08-20T18:10:22.209Z,5.42
2018-08-20T18:12:50.955Z,5.40
2018-08-20T18:15:19.906Z,6.03
2018-08-20T18:17:48.740Z,5.40
2018-08-20T18:20:17.775Z,5.63
2018-08-20T18:22:46.672Z,16.07
2018-08-20T18:25:15.728Z,5.00
2018-08-20T18:27:45.210Z,5.15
2018-08-20T18:30:17.592Z,5.28
2018-08-20T18:32:46.702Z,5.47
2018-08-20T18:35:26.235Z,5.05
2018-08-20T18:37:56.637Z,4.92
2018-08-20T18:40:25.423Z,5.47
2018-08-20T18:42:54.982Z,5.90
2018-08-20T18:45:26.852Z,6.83
2018-08-20T18:47:55.608Z,5.72
2018-08-20T18:50:24.259Z,6.85
2018-08-20T18:52:52.923Z,6.10
2018-08-20T18:55:21.711Z,5.80
2018-08-20T18:57:50.450Z,6.85
2018-08-20T19:00:19.170Z,6.08
2018-08-20T19:02:53.240Z,5.70
2018-08-20T19:05:22.488Z,6.22
2018-08-20T19:07:51.359Z,5.78
2018-08-20T19:10:21.541Z,5.67
2018-08-20T19:12:51.346Z,5.80
2018-08-20T19:15:46.292Z,6.20
2018-08-20T19:18:19.913Z,5.75
2018-08-20T19:20:48.813Z,6.37
2018-08-20T19:23:17.858Z,6.40
2018-08-20T19:25:46.744Z,7.33
2018-08-20T19:28:22.184Z,6.05
2018-08-20T19:30:51.948Z,7.67
2018-08-20T19:33:30.685Z,6.43
2018-08-20T19:35:59.582Z,6.60
2018-08-20T19:38:28.601Z,8.33
2018-08-20T19:41:03.700Z,7.45
2018-08-20T19:43:41.265Z,7.83
2018-08-20T19:46:10.061Z,7.10
2018-08-20T19:48:38.755Z,7.30
2018-08-20T19:51:09.923Z,7.17
2018-08-20T19:53:41.309Z,6.22
2018-08-20T19:56:11.713Z,6.42
2018-08-20T19:58:43.504Z,5.97
2018-08-20T20:01:14.803Z,6.33
2018-08-20T20:03:45.530Z,6.60
2018-08-20T20:06:14.892Z,6.08
2018-08-20T20:15:30.308Z,6.47
2018-08-20T20:17:58.983Z,6.45
2018-08-20T20:20:27.707Z,6.90
2018-08-20T20:22:56.455Z,6.60
2018-08-20T20:25:25.279Z,8.10
2018-08-20T20:27:54.019Z,8.35
2018-08-20T20:30:22.858Z,8.18
2018-08-20T20:32:52.503Z,7.65
2018-08-20T20:35:22.147Z,8.05
2018-08-20T20:37:52.140Z,7.17
2018-08-20T20:40:20.954Z,7.15
2018-08-20T20:42:49.738Z,6.60
2018-08-20T20:45:18.474Z,7.10
2018-08-20T20:47:47.204Z,6.90
2018-08-20T20:50:15.960Z,6.70
2018-08-20T20:52:44.636Z,7.40
2018-08-20T20:55:13.304Z,6.30
2018-08-20T20:57:41.921Z,6.53
2018-08-20T21:00:11.043Z,6.40
2018-08-20T21:02:40.395Z,6.70
2018-08-20T21:05:10.735Z,6.42
2018-08-20T21:07:39.464Z,6.92
2018-08-20T21:10:08.798Z,6.92
2018-08-20T21:12:37.646Z,6.58
2018-08-20T21:15:07.795Z,6.70
2018-08-20T21:17:37.370Z,6.62
2018-08-20T21:20:07.754Z,6.90
2018-08-20T21:22:37.327Z,6.58
2018-08-20T21:25:06.967Z,7.23
2018-08-20T21:27:35.943Z,6.80
2018-08-20T21:30:05.044Z,6.50
2018-08-20T21:32:33.805Z,6.78
2018-08-20T21:35:02.445Z,6.80
2018-08-20T21:37:32.515Z,6.33
2018-08-20T21:40:01.180Z,6.90
2018-08-20T21:42:35.157Z,6.90
2018-08-20T21:45:06.864Z,8.18
2018-08-20T21:47:36.241Z,7.23
2018-08-20T21:50:05.672Z,6.97
2018-08-20T21:52:34.423Z,6.90
2018-08-20T21:55:03.247Z,7.22
2018-08-20T21:57:31.927Z,7.12
2018-08-20T22:00:18.914Z,7.45
2018-08-20T22:02:53.057Z,7.60
2018-08-20T22:05:21.927Z,7.80
2018-08-20T22:07:50.812Z,7.85
2018-08-20T22:10:19.505Z,8.18
2018-08-20T22:12:50.634Z,7.70
2018-08-20T22:15:19.482Z,7.62
2018-08-20T22:17:48.335Z,6.80
2018-08-20T22:20:17.128Z,6.87
2018-08-20T22:22:46.130Z,6.50
2018-08-20T22:25:16.019Z,6.90
2018-08-20T22:27:50.098Z,7.17
2018-08-20T22:30:18.902Z,6.55
2018-08-20T22:32:47.730Z,7.83
2018-08-20T22:35:26.046Z,7.37
2018-08-20T22:37:55.274Z,7.30
2018-08-20T22:40:24.504Z,7.22
2018-08-20T22:42:56.194Z,7.80
2018-08-20T22:45:24.884Z,7.87
2018-08-20T22:47:53.698Z,7.70
2018-08-20T22:50:22.524Z,7.83
2018-08-20T22:52:51.952Z,7.92
2018-08-20T22:55:21.675Z,7.77
2018-08-20T22:58:01.686Z,7.12
2018-08-20T23:00:30.456Z,7.28
2018-08-20T23:02:59.203Z,7.20
2018-08-20T23:05:30.936Z,7.60
2018-08-20T23:08:05.846Z,7.30
2018-08-20T23:10:35.851Z,7.10
2018-08-20T23:13:04.655Z,7.23
2018-08-20T23:15:33.390Z,7.92
2018-08-20T23:18:02.070Z,7.57
2018-08-20T23:20:31.321Z,7.75
2018-08-20T23:23:01.398Z,8.35
2018-08-20T23:25:30.409Z,7.97
2018-08-20T23:27:59.123Z,8.23
2018-08-20T23:30:29.462Z,8.20
2018-08-20T23:32:58.291Z,8.50
2018-08-20T23:35:26.983Z,8.00
2018-08-20T23:37:55.762Z,8.03
2018-08-20T23:40:24.431Z,7.90
2018-08-20T23:42:53.116Z,8.43
2018-08-20T23:45:21.907Z,8.30
2018-08-20T23:47:50.626Z,8.35
2018-08-20T23:50:19.471Z,7.95
2018-08-20T23:52:48.261Z,8.63
2018-08-20T23:55:17.037Z,8.55
